createdAt,value
2018-10-11T00:00:50.429Z,997.62
2018-10-11T00:01:50.451Z,997.60
2018-10-11T00:02:50.412Z,997.60
2018-10-11T00:03:50.418Z,997.57
2018-10-11T00:04:50.384Z,997.58
2018-10-11T00:05:50.391Z,997.59
2018-10-11T00:06:50.386Z,997.57
2018-10-11T00:07:50.356Z,997.52
2018-10-11T00:08:50.340Z,997.56
2018-10-11T00:09:50.352Z,997.55
2018-10-11T00:10:50.319Z,997.55
2018-10-11T00:11:50.332Z,997.49
2018-10-11T00:12:50.295Z,997.53
2018-10-11T00:13:50.446Z,997.57
2018-10-11T00:14:50.311Z,997.56
2018-10-11T00:15:50.266Z,997.53
2018-10-11T00:16:50.253Z,997.58
2018-10-11T00:17:50.240Z,997.58
2018-10-11T00:18:50.228Z,997.60
2018-10-11T00:19:50.262Z,997.61
2018-10-11T00:20:50.208Z,997.64
2018-10-11T00:21:50.195Z,997.67
2018-10-11T00:22:50.189Z,997.68
2018-10-11T00:23:50.195Z,997.68
2018-10-11T00:24:50.168Z,997.63
2018-10-11T00:25:50.157Z,997.60
2018-10-11T00:26:50.165Z,997.63
2018-10-11T00:27:50.131Z,997.62
2018-10-11T00:28:50.121Z,997.57
2018-10-11T00:29:50.131Z,997.62
2018-10-11T00:30:50.202Z,997.61
2018-10-11T00:31:50.089Z,997.56
2018-10-11T00:32:50.072Z,997.55
2018-10-11T00:33:50.095Z,997.54
2018-10-11T00:34:50.054Z,997.56
2018-10-11T00:35:50.051Z,997.54
2018-10-11T00:36:50.044Z,997.53
2018-10-11T00:37:58.357Z,997.54
2018-10-11T00:38:50.038Z,997.56
2018-10-11T00:39:49.995Z,997.61
2018-10-11T00:40:49.987Z,997.58
2018-10-11T00:41:58.147Z,997.54
2018-10-11T00:42:58.442Z,997.56
2018-10-11T00:43:49.972Z,997.60
2018-10-11T00:44:49.941Z,997.54
2018-10-11T00:45:49.933Z,997.60
2018-10-11T00:46:59.465Z,997.55
2018-10-11T00:47:49.907Z,997.59
2018-10-11T00:48:49.891Z,997.54
2018-10-11T00:49:49.883Z,997.54
2018-10-11T00:50:49.881Z,997.51
2018-10-11T00:51:49.893Z,997.52
2018-10-11T00:52:49.856Z,997.50
2018-10-11T00:53:49.847Z,997.48
2018-10-11T00:54:49.830Z,997.50
2018-10-11T00:55:49.813Z,997.44
2018-10-11T00:56:49.831Z,997.34
2018-10-11T00:57:49.799Z,997.36
2018-10-11T00:58:49.831Z,997.29
2018-10-11T00:59:49.789Z,997.23
2018-10-11T01:00:49.791Z,997.24
2018-10-11T01:01:49.755Z,997.23
2018-10-11T01:02:49.739Z,997.22
2018-10-11T01:03:49.742Z,997.23
2018-10-11T01:04:49.761Z,997.22
2018-10-11T01:05:49.704Z,997.18
2018-10-11T01:06:49.700Z,997.17
2018-10-11T01:07:49.695Z,997.18
2018-10-11T01:08:49.676Z,997.13
2018-10-11T01:09:49.715Z,997.12
2018-10-11T01:10:49.650Z,997.09
2018-10-11T01:11:49.655Z,997.11
2018-10-11T01:12:49.663Z,997.05
2018-10-11T01:13:49.619Z,997.01
2018-10-11T01:14:49.626Z,997.04
2018-10-11T01:15:49.625Z,997.04
2018-10-11T01:16:49.606Z,997.00
2018-10-11T01:17:49.581Z,996.93
2018-10-11T01:18:56.540Z,996.94
2018-10-11T01:19:49.553Z,996.97
2018-10-11T01:20:49.591Z,996.90
2018-10-11T01:21:49.547Z,996.91
2018-10-11T01:22:49.539Z,996.89
2018-10-11T01:23:49.560Z,996.91
2018-10-11T01:24:49.498Z,996.95
2018-10-11T01:25:49.512Z,996.98
2018-10-11T01:26:49.475Z,996.92
2018-10-11T01:27:49.462Z,996.96
2018-10-11T01:28:49.455Z,996.92
2018-10-11T01:29:49.528Z,996.89
2018-10-11T01:30:49.453Z,996.89
2018-10-11T01:31:49.433Z,996.81
2018-10-11T01:32:49.416Z,996.81
2018-10-11T01:33:49.395Z,996.78
2018-10-11T01:34:49.392Z,996.79
2018-10-11T01:35:49.407Z,996.81
2018-10-11T01:36:49.372Z,996.79
2018-10-11T01:37:49.396Z,996.79
2018-10-11T01:38:49.401Z,996.82
2018-10-11T01:39:49.338Z,996.80
2018-10-11T01:40:49.353Z,996.78
2018-10-11T01:41:49.317Z,996.79
2018-10-11T01:42:49.295Z,996.77
2018-10-11T01:43:49.291Z,996.75
2018-10-11T01:44:49.305Z,996.72
2018-10-11T01:45:49.264Z,996.69
2018-10-11T01:46:49.249Z,996.68
2018-10-11T01:47:49.412Z,996.65
2018-10-11T01:48:49.251Z,996.61
2018-10-11T01:49:49.226Z,996.65
2018-10-11T01:50:49.234Z,996.64
2018-10-11T01:51:49.198Z,996.63
2018-10-11T01:52:49.184Z,996.61
2018-10-11T01:53:49.179Z,996.67
2018-10-11T01:54:49.171Z,996.72
2018-10-11T01:55:49.182Z,996.73
2018-10-11T01:56:49.280Z,996.75
2018-10-11T01:57:49.131Z,996.75
2018-10-11T01:58:49.115Z,996.75
2018-10-11T01:59:49.108Z,996.72
2018-10-11T02:00:49.145Z,996.74
2018-10-11T02:01:49.098Z,996.72
2018-10-11T02:02:49.077Z,996.75
2018-10-11T02:03:49.076Z,996.77
2018-10-11T02:04:49.052Z,996.84
2018-10-11T02:05:49.062Z,996.86
2018-10-11T02:06:49.029Z,996.89
2018-10-11T02:07:49.034Z,996.85
2018-10-11T02:08:49.004Z,996.79
2018-10-11T02:09:49.008Z,996.80
2018-10-11T02:10:49.027Z,996.82
2018-10-11T02:11:49.013Z,996.77
2018-10-11T02:12:48.961Z,996.76
2018-10-11T02:13:48.952Z,996.75
2018-10-11T02:14:48.944Z,996.76
2018-10-11T02:15:48.932Z,996.74
2018-10-11T02:16:48.950Z,996.74
2018-10-11T02:17:48.903Z,996.66
2018-10-11T02:18:48.892Z,996.69
2018-10-11T02:19:48.880Z,996.70
2018-10-11T02:20:48.879Z,996.69
2018-10-11T02:21:48.891Z,996.69
2018-10-11T02:22:48.846Z,996.66
2018-10-11T02:23:48.837Z,996.65
2018-10-11T02:24:48.852Z,996.65
2018-10-11T02:25:48.814Z,996.64
2018-10-11T02:26:48.963Z,996.66
2018-10-11T02:27:48.791Z,996.71
2018-10-11T02:28:48.785Z,996.72
2018-10-11T02:29:48.773Z,996.73
2018-10-11T02:30:48.773Z,996.75
2018-10-11T02:31:48.842Z,996.78
2018-10-11T02:32:48.737Z,996.80
2018-10-11T02:33:48.737Z,996.78
2018-10-11T02:34:48.715Z,996.77
2018-10-11T02:35:48.723Z,996.81
2018-10-11T02:36:48.701Z,996.79
2018-10-11T02:37:48.692Z,996.76
2018-10-11T02:38:48.674Z,996.74
2018-10-11T02:39:48.676Z,996.76
2018-10-11T02:40:48.681Z,996.73
2018-10-11T02:41:48.642Z,996.72
2018-10-11T02:42:48.629Z,996.66
2018-10-11T02:43:48.627Z,996.69
2018-10-11T02:44:48.610Z,996.65
2018-10-11T02:45:48.616Z,996.68
2018-10-11T02:46:48.617Z,996.68
2018-10-11T02:47:48.685Z,996.70
2018-10-11T02:48:48.556Z,996.69
2018-10-11T02:49:48.545Z,996.70
2018-10-11T02:50:48.535Z,996.70
2018-10-11T02:51:48.556Z,996.74
2018-10-11T02:52:48.514Z,996.72
2018-10-11T02:53:48.530Z,996.69
2018-10-11T02:54:48.501Z,996.71
2018-10-11T02:55:48.479Z,996.68
2018-10-11T02:56:48.471Z,996.61
2018-10-11T02:57:48.456Z,996.60
2018-10-11T02:58:48.478Z,996.52
2018-10-11T02:59:48.442Z,996.55
2018-10-11T03:00:48.422Z,996.55
2018-10-11T03:01:48.414Z,996.51
2018-10-11T03:02:48.401Z,996.50
2018-10-11T03:03:48.428Z,996.51
2018-10-11T03:04:48.378Z,996.52
2018-10-11T03:05:48.374Z,996.52
2018-10-11T03:06:48.360Z,996.52
2018-10-11T03:07:48.346Z,996.57
2018-10-11T03:08:48.357Z,996.58
2018-10-11T03:09:48.331Z,996.59
2018-10-11T03:10:48.318Z,996.58
2018-10-11T03:11:48.300Z,996.63
2018-10-11T03:12:48.288Z,996.65
2018-10-11T03:13:48.316Z,996.64
2018-10-11T03:14:48.277Z,996.62
2018-10-11T03:15:48.256Z,996.59
2018-10-11T03:16:48.244Z,996.54
2018-10-11T03:17:48.254Z,996.61
2018-10-11T03:18:48.245Z,996.61
2018-10-11T03:19:48.213Z,996.64
2018-10-11T03:20:48.215Z,996.71
2018-10-11T03:21:48.197Z,996.73
2018-10-11T03:22:48.178Z,996.77
2018-10-11T03:23:48.193Z,996.74
2018-10-11T03:24:48.164Z,996.75
2018-10-11T03:25:48.167Z,996.75
2018-10-11T03:26:48.146Z,996.74
2018-10-11T03:27:48.126Z,996.74
2018-10-11T03:28:48.112Z,996.73
2018-10-11T03:29:48.104Z,996.71
2018-10-11T03:30:48.114Z,996.69
2018-10-11T03:31:48.080Z,996.66
2018-10-11T03:32:48.077Z,996.64
2018-10-11T03:33:48.065Z,996.63
2018-10-11T03:34:48.044Z,996.63
2018-10-11T03:35:48.056Z,996.60
2018-10-11T03:36:48.031Z,996.63
2018-10-11T03:37:48.018Z,996.65
2018-10-11T03:38:48.001Z,996.64
2018-10-11T03:39:47.990Z,996.67
2018-10-11T03:40:47.997Z,996.66
2018-10-11T03:41:47.970Z,996.67
2018-10-11T03:42:47.958Z,996.68
2018-10-11T03:43:47.966Z,996.70
2018-10-11T03:44:47.961Z,996.70
2018-10-11T03:45:47.921Z,996.73
2018-10-11T03:46:47.913Z,996.72
2018-10-11T03:47:47.914Z,996.71
2018-10-11T03:48:47.908Z,996.67
2018-10-11T03:49:47.883Z,996.68
2018-10-11T03:50:47.869Z,996.65
2018-10-11T03:51:47.855Z,996.62
2018-10-11T03:52:47.846Z,996.62
2018-10-11T03:53:47.863Z,996.66
2018-10-11T03:54:47.831Z,996.65
2018-10-11T03:55:47.809Z,996.67
2018-10-11T03:56:47.803Z,996.72
2018-10-11T03:57:47.795Z,996.70
2018-10-11T03:58:47.802Z,996.65
2018-10-11T03:59:47.769Z,996.70
2018-10-11T04:00:47.758Z,996.67
2018-10-11T04:01:47.768Z,996.66
2018-10-11T04:02:47.737Z,996.69
2018-10-11T04:03:47.731Z,996.70
2018-10-11T04:04:47.709Z,996.66
2018-10-11T04:05:47.700Z,996.69
2018-10-11T04:06:47.717Z,996.70
2018-10-11T04:07:47.700Z,996.70
2018-10-11T04:08:47.669Z,996.69
2018-10-11T04:09:47.660Z,996.71
2018-10-11T04:10:47.667Z,996.69
2018-10-11T04:11:47.647Z,996.68
2018-10-11T04:12:47.623Z,996.66
2018-10-11T04:13:47.611Z,996.62
2018-10-11T04:14:47.600Z,996.62
2018-10-11T04:15:47.654Z,996.61
2018-10-11T04:16:47.584Z,996.59
2018-10-11T04:17:47.570Z,996.57
2018-10-11T04:18:47.559Z,996.58
2018-10-11T04:19:47.543Z,996.60
2018-10-11T04:20:47.557Z,996.62
2018-10-11T04:21:47.531Z,996.59
2018-10-11T04:22:47.510Z,996.56
2018-10-11T04:23:47.534Z,996.52
2018-10-11T04:24:47.496Z,996.50
2018-10-11T04:25:47.478Z,996.48
2018-10-11T04:26:47.490Z,996.44
2018-10-11T04:27:47.456Z,996.45
2018-10-11T04:28:47.486Z,996.46
2018-10-11T04:29:47.442Z,996.39
2018-10-11T04:30:47.422Z,996.42
2018-10-11T04:31:47.424Z,996.41
2018-10-11T04:32:47.414Z,996.39
2018-10-11T04:33:47.418Z,996.38
2018-10-11T04:34:47.404Z,996.34
2018-10-11T04:35:47.369Z,996.33
2018-10-11T04:36:47.357Z,996.36
2018-10-11T04:37:47.343Z,996.35
2018-10-11T04:38:47.340Z,996.37
2018-10-11T04:39:47.344Z,996.39
2018-10-11T04:40:47.311Z,996.39
2018-10-11T04:41:47.335Z,996.37
2018-10-11T04:42:47.348Z,996.36
2018-10-11T04:43:47.278Z,996.37
2018-10-11T04:44:47.299Z,996.36
2018-10-11T04:45:47.257Z,996.38
2018-10-11T04:46:47.244Z,996.34
2018-10-11T04:47:47.238Z,996.34
2018-10-11T04:48:47.277Z,996.40
2018-10-11T04:49:47.215Z,996.32
2018-10-11T04:50:47.202Z,996.34
2018-10-11T04:51:47.219Z,996.31
2018-10-11T04:52:47.177Z,996.32
2018-10-11T04:53:47.481Z,996.33
2018-10-11T04:54:47.156Z,996.35
2018-10-11T04:55:47.145Z,996.31
2018-10-11T04:56:47.142Z,996.34
2018-10-11T04:57:47.123Z,996.35
2018-10-11T04:58:47.134Z,996.37
2018-10-11T04:59:47.133Z,996.42
2018-10-11T05:00:47.090Z,996.40
2018-10-11T05:01:47.079Z,996.41
2018-10-11T05:02:47.072Z,996.39
2018-10-11T05:03:47.090Z,996.34
2018-10-11T05:04:47.064Z,996.38
2018-10-11T05:05:47.044Z,996.31
2018-10-11T05:06:47.023Z,996.32
2018-10-11T05:07:47.036Z,996.30
2018-10-11T05:08:47.012Z,996.33
2018-10-11T05:09:46.997Z,996.33
2018-10-11T05:10:46.978Z,996.32
2018-10-11T05:11:46.974Z,996.36
2018-10-11T05:12:46.996Z,996.34
2018-10-11T05:13:46.970Z,996.38
2018-10-11T05:14:46.935Z,996.38
2018-10-11T05:15:46.927Z,996.33
2018-10-11T05:16:46.912Z,996.30
2018-10-11T05:17:46.907Z,996.31
2018-10-11T05:18:46.927Z,996.26
2018-10-11T05:19:46.885Z,996.28
2018-10-11T05:20:46.884Z,996.33
2018-10-11T05:21:46.858Z,996.36
2018-10-11T05:22:46.852Z,996.35
2018-10-11T05:23:46.889Z,996.43
2018-10-11T05:24:46.827Z,996.42
2018-10-11T05:25:46.817Z,996.44
2018-10-11T05:26:46.803Z,996.46
2018-10-11T05:27:46.796Z,996.41
2018-10-11T05:28:46.804Z,996.45
2018-10-11T05:29:46.771Z,996.38
2018-10-11T05:30:46.766Z,996.38
2018-10-11T05:31:46.753Z,996.33
2018-10-11T05:32:46.747Z,996.29
2018-10-11T05:33:46.753Z,996.34
2018-10-11T05:34:46.720Z,996.35
2018-10-11T05:35:46.707Z,996.37
2018-10-11T05:36:46.703Z,996.37
2018-10-11T05:37:46.682Z,996.38
2018-10-11T05:38:46.693Z,996.40
2018-10-11T05:39:46.667Z,996.36
2018-10-11T05:40:46.653Z,996.37
2018-10-11T05:41:46.639Z,996.35
2018-10-11T05:42:46.633Z,996.35
2018-10-11T05:43:46.643Z,996.42
2018-10-11T05:44:46.607Z,996.43
2018-10-11T05:45:46.598Z,996.45
2018-10-11T05:46:46.606Z,996.47
2018-10-11T05:47:46.585Z,996.43
2018-10-11T05:48:46.591Z,996.45
2018-10-11T05:49:46.565Z,996.44
2018-10-11T05:50:46.574Z,996.46
2018-10-11T05:51:46.553Z,996.41
2018-10-11T05:52:46.517Z,996.47
2018-10-11T05:53:46.528Z,996.44
2018-10-11T05:54:46.505Z,996.43
2018-10-11T05:55:46.492Z,996.45
2018-10-11T05:56:46.535Z,996.48
2018-10-11T05:57:46.465Z,996.52
2018-10-11T05:58:46.462Z,996.55
2018-10-11T05:59:46.450Z,996.58
2018-10-11T06:00:46.463Z,996.62
2018-10-11T06:01:46.418Z,996.60
2018-10-11T06:02:46.417Z,996.59
2018-10-11T06:03:46.427Z,996.66
2018-10-11T06:04:46.386Z,996.61
2018-10-11T06:05:46.382Z,996.65
2018-10-11T06:06:46.363Z,996.62
2018-10-11T06:07:46.353Z,996.62
2018-10-11T06:08:46.364Z,996.61
2018-10-11T06:09:46.338Z,996.63
2018-10-11T06:10:46.320Z,996.58
2018-10-11T06:11:46.328Z,996.63
2018-10-11T06:12:46.304Z,996.72
2018-10-11T06:13:46.311Z,996.68
2018-10-11T06:14:46.284Z,996.69
2018-10-11T06:15:46.277Z,996.72
2018-10-11T06:16:46.254Z,996.73
2018-10-11T06:17:46.348Z,996.76
2018-10-11T06:18:46.231Z,996.78
2018-10-11T06:19:46.232Z,996.79
2018-10-11T06:20:46.212Z,996.71
2018-10-11T06:21:46.199Z,996.72
2018-10-11T06:22:46.223Z,996.70
2018-10-11T06:23:46.177Z,996.65
2018-10-11T06:24:46.189Z,996.64
2018-10-11T06:25:46.159Z,996.66
2018-10-11T06:26:46.143Z,996.64
2018-10-11T06:27:46.233Z,996.64
2018-10-11T06:28:46.187Z,996.60
2018-10-11T06:29:46.133Z,996.60
2018-10-11T06:30:46.102Z,996.56
2018-10-11T06:31:46.094Z,996.58
2018-10-11T06:32:46.105Z,996.54
2018-10-11T06:33:46.069Z,996.57
2018-10-11T06:34:46.081Z,996.58
2018-10-11T06:35:46.112Z,996.64
2018-10-11T06:36:46.046Z,996.66
2018-10-11T06:37:46.050Z,996.73
2018-10-11T06:38:46.058Z,996.72
2018-10-11T06:39:46.009Z,996.76
2018-10-11T06:40:45.988Z,996.75
2018-10-11T06:41:46.042Z,996.71
2018-10-11T06:42:46.071Z,996.75
2018-10-11T06:43:45.993Z,996.73
2018-10-11T06:44:45.944Z,996.77
2018-10-11T06:45:45.938Z,996.82
2018-10-11T06:46:45.929Z,996.79
2018-10-11T06:47:45.912Z,996.84
2018-10-11T06:48:45.948Z,996.84
2018-10-11T06:49:45.931Z,996.85
2018-10-11T06:50:45.879Z,996.88
2018-10-11T06:51:45.869Z,996.81
2018-10-11T06:52:45.858Z,996.82
2018-10-11T06:53:45.867Z,996.83
2018-10-11T06:54:45.836Z,996.80
2018-10-11T06:55:45.886Z,996.78
2018-10-11T06:56:45.812Z,996.79
2018-10-11T06:57:45.802Z,996.78
2018-10-11T06:58:45.813Z,996.83
2018-10-11T06:59:45.804Z,996.85
2018-10-11T07:00:45.767Z,996.87
2018-10-11T07:01:45.835Z,996.87
2018-10-11T07:02:45.750Z,996.81
2018-10-11T07:03:45.740Z,996.84
2018-10-11T07:04:45.746Z,996.78
2018-10-11T07:05:45.715Z,996.77
2018-10-11T07:06:45.704Z,996.70
2018-10-11T07:07:45.709Z,996.71
2018-10-11T07:08:45.710Z,996.71
2018-10-11T07:09:45.669Z,996.72
2018-10-11T07:10:45.657Z,996.75
2018-10-11T07:11:45.647Z,996.77
2018-10-11T07:12:45.641Z,996.79
2018-10-11T07:13:45.723Z,996.76
2018-10-11T07:14:45.615Z,996.77
2018-10-11T07:15:45.624Z,996.74
2018-10-11T07:16:45.594Z,996.75
2018-10-11T07:17:45.581Z,996.69
2018-10-11T07:18:45.567Z,996.64
2018-10-11T07:19:45.598Z,996.68
2018-10-11T07:20:45.548Z,996.69
2018-10-11T07:21:45.535Z,996.71
2018-10-11T07:22:45.523Z,996.71
2018-10-11T07:23:45.524Z,996.72
2018-10-11T07:24:45.592Z,996.72
2018-10-11T07:25:45.557Z,996.73
2018-10-11T07:26:45.486Z,996.70
2018-10-11T07:27:45.491Z,996.67
2018-10-11T07:28:45.464Z,996.70
2018-10-11T07:29:45.469Z,996.74
2018-10-11T07:30:45.438Z,996.75
2018-10-11T07:31:45.436Z,996.75
2018-10-11T07:32:45.430Z,996.72
2018-10-11T07:33:45.403Z,996.76
2018-10-11T07:34:45.549Z,996.74
2018-10-11T07:35:45.383Z,996.73
2018-10-11T07:36:45.368Z,996.75
2018-10-11T07:37:45.379Z,996.73
2018-10-11T07:38:45.349Z,996.71
2018-10-11T07:39:45.352Z,996.66
2018-10-11T07:40:45.386Z,996.69
2018-10-11T07:41:45.317Z,996.72
2018-10-11T07:42:45.360Z,996.74
2018-10-11T07:43:45.291Z,996.73
2018-10-11T07:44:45.279Z,996.69
2018-10-11T07:45:45.289Z,996.73
2018-10-11T07:46:45.280Z,996.69
2018-10-11T07:47:45.248Z,996.70
2018-10-11T07:48:45.242Z,996.63
2018-10-11T07:49:45.230Z,996.64
2018-10-11T07:50:45.212Z,996.68
2018-10-11T07:51:45.237Z,996.73
2018-10-11T07:52:45.219Z,996.75
2018-10-11T07:53:45.178Z,996.76
2018-10-11T07:54:45.170Z,996.78
2018-10-11T07:55:45.159Z,996.74
2018-10-11T07:56:45.210Z,996.75
2018-10-11T07:57:45.425Z,996.77
2018-10-11T07:58:45.127Z,996.79
2018-10-11T07:59:45.129Z,996.79
2018-10-11T08:00:45.100Z,996.76
2018-10-11T08:01:45.180Z,996.79
2018-10-11T08:02:45.079Z,996.82
2018-10-11T08:03:45.098Z,996.82
2018-10-11T08:04:45.060Z,996.79
2018-10-11T08:05:45.049Z,996.75
2018-10-11T08:06:45.071Z,996.76
2018-10-11T08:07:45.122Z,996.74
2018-10-11T08:08:45.036Z,996.69
2018-10-11T08:09:45.021Z,996.69
2018-10-11T08:10:45.055Z,996.71
2018-10-11T08:11:45.152Z,996.70
2018-10-11T08:12:44.969Z,996.68
2018-10-11T08:13:44.987Z,996.67
2018-10-11T08:14:44.955Z,996.67
2018-10-11T08:15:44.939Z,996.67
2018-10-11T08:16:45.108Z,996.69
2018-10-11T08:17:45.251Z,996.68
2018-10-11T08:18:45.013Z,996.60
2018-10-11T08:19:44.989Z,996.59
2018-10-11T08:20:44.883Z,996.64
2018-10-11T08:21:44.950Z,996.64
2018-10-11T08:22:44.861Z,996.63
2018-10-11T08:23:44.865Z,996.68
2018-10-11T08:24:45.060Z,996.71
2018-10-11T08:25:45.186Z,996.72
2018-10-11T08:26:44.951Z,996.73
2018-10-11T08:27:44.826Z,996.71
2018-10-11T08:28:44.812Z,996.65
2018-10-11T08:29:44.778Z,996.63
2018-10-11T08:30:44.776Z,996.61
2018-10-11T08:31:44.876Z,996.58
2018-10-11T08:32:44.762Z,996.59
2018-10-11T08:33:44.737Z,996.54
2018-10-11T08:34:44.761Z,996.55
2018-10-11T08:35:44.713Z,996.50
2018-10-11T08:36:44.699Z,996.47
2018-10-11T08:37:44.728Z,996.43
2018-10-11T08:38:44.679Z,996.43
2018-10-11T08:39:44.699Z,996.45
2018-10-11T08:40:44.659Z,996.45
2018-10-11T08:41:44.648Z,996.47
2018-10-11T08:42:44.641Z,996.48
2018-10-11T08:43:44.661Z,996.52
2018-10-11T08:44:44.641Z,996.50
2018-10-11T08:45:44.600Z,996.51
2018-10-11T08:46:44.592Z,996.46
2018-10-11T08:47:44.580Z,996.44
2018-10-11T08:48:44.590Z,996.41
2018-10-11T08:49:44.585Z,996.37
2018-10-11T08:50:44.561Z,996.35
2018-10-11T08:51:44.535Z,996.37
2018-10-11T08:52:44.528Z,996.32
2018-10-11T08:53:44.556Z,996.32
2018-10-11T08:54:44.525Z,996.33
2018-10-11T08:55:44.639Z,996.26
2018-10-11T08:56:44.480Z,996.29
2018-10-11T08:57:44.467Z,996.29
2018-10-11T08:58:44.478Z,996.28
2018-10-11T08:59:44.563Z,996.27
2018-10-11T09:00:44.435Z,996.28
2018-10-11T09:01:44.502Z,996.28
2018-10-11T09:02:44.410Z,996.27
2018-10-11T09:03:44.636Z,996.30
2018-10-11T09:04:44.408Z,996.34
2018-10-11T09:05:44.379Z,996.26
2018-10-11T09:06:44.397Z,996.28
2018-10-11T09:07:44.355Z,996.29
2018-10-11T09:08:44.361Z,996.30
2018-10-11T09:09:44.356Z,996.28
2018-10-11T09:10:44.341Z,996.29
2018-10-11T09:11:44.317Z,996.28
2018-10-11T09:12:44.304Z,996.27
2018-10-11T09:13:44.289Z,996.28
2018-10-11T09:14:44.317Z,996.28
2018-10-11T09:15:44.268Z,996.26
2018-10-11T09:16:44.255Z,996.25
2018-10-11T09:17:44.244Z,996.18
2018-10-11T09:18:44.238Z,996.24
2018-10-11T09:19:44.248Z,996.16
2018-10-11T09:20:44.224Z,996.13
2018-10-11T09:21:44.204Z,996.15
2018-10-11T09:22:44.191Z,996.13
2018-10-11T09:23:44.182Z,996.13
2018-10-11T09:24:44.211Z,996.16
2018-10-11T09:25:44.161Z,996.15
2018-10-11T09:26:44.147Z,996.18
2018-10-11T09:27:44.135Z,996.21
2018-10-11T09:28:44.124Z,996.23
2018-10-11T09:29:44.152Z,996.28
2018-10-11T09:30:44.104Z,996.26
2018-10-11T09:31:44.091Z,996.28
2018-10-11T09:32:44.105Z,996.26
2018-10-11T09:33:44.068Z,996.25
2018-10-11T09:34:44.089Z,996.27
2018-10-11T09:35:44.048Z,996.27
2018-10-11T09:36:44.035Z,996.32
2018-10-11T09:37:44.024Z,996.34
2018-10-11T09:38:44.030Z,996.37
2018-10-11T09:39:44.028Z,996.41
2018-10-11T09:40:44.016Z,996.43
2018-10-11T09:41:43.981Z,996.40
2018-10-11T09:42:43.986Z,996.41
2018-10-11T09:43:43.966Z,996.37
2018-10-11T09:44:43.946Z,996.39
2018-10-11T09:45:43.973Z,996.35
2018-10-11T09:46:43.924Z,996.36
2018-10-11T09:47:43.918Z,996.38
2018-10-11T09:48:43.977Z,996.43
2018-10-11T09:49:43.893Z,996.43
2018-10-11T09:50:43.882Z,996.42
2018-10-11T09:51:43.870Z,996.36
2018-10-11T09:52:43.861Z,996.39
2018-10-11T09:53:43.905Z,996.32
2018-10-11T09:54:43.857Z,996.35
2018-10-11T09:55:43.834Z,996.34
2018-10-11T09:56:43.911Z,996.35
2018-10-11T09:57:43.806Z,996.39
2018-10-11T09:58:43.817Z,996.38
2018-10-11T09:59:43.816Z,996.43
2018-10-11T10:00:43.786Z,996.46
2018-10-11T10:01:43.763Z,996.47
2018-10-11T10:02:43.804Z,996.46
2018-10-11T10:03:43.742Z,996.52
2018-10-11T10:04:43.728Z,996.49
2018-10-11T10:05:43.715Z,996.46
2018-10-11T10:06:43.705Z,996.43
2018-10-11T10:07:43.737Z,996.43
2018-10-11T10:08:43.683Z,996.44
2018-10-11T10:09:43.678Z,996.46
2018-10-11T10:10:43.660Z,996.44
2018-10-11T10:11:43.652Z,996.42
2018-10-11T10:12:43.658Z,996.39
2018-10-11T10:13:43.659Z,996.35
2018-10-11T10:14:43.615Z,996.32
2018-10-11T10:15:43.764Z,996.34
2018-10-11T10:16:43.593Z,996.31
2018-10-11T10:17:43.581Z,996.31
2018-10-11T10:18:43.601Z,996.38
2018-10-11T10:19:43.566Z,996.44
2018-10-11T10:20:43.566Z,996.46
2018-10-11T10:21:43.592Z,996.47
2018-10-11T10:22:43.527Z,996.49
2018-10-11T10:23:43.553Z,996.51
2018-10-11T10:24:43.505Z,996.50
2018-10-11T10:25:43.519Z,996.49
2018-10-11T10:26:43.571Z,996.54
2018-10-11T10:27:43.475Z,996.53
2018-10-11T10:28:43.466Z,996.59
2018-10-11T10:29:43.451Z,996.58
2018-10-11T10:30:43.465Z,996.52
2018-10-11T10:31:43.440Z,996.51
2018-10-11T10:32:43.417Z,996.44
2018-10-11T10:33:43.406Z,996.50
2018-10-11T10:34:43.396Z,996.49
2018-10-11T10:35:43.406Z,996.55
2018-10-11T10:36:43.375Z,996.55
2018-10-11T10:37:43.386Z,996.60
2018-10-11T10:38:43.351Z,996.61
2018-10-11T10:39:43.396Z,996.65
2018-10-11T10:40:43.359Z,996.64
2018-10-11T10:41:43.319Z,996.69
2018-10-11T10:42:43.308Z,996.67
2018-10-11T10:43:43.306Z,996.64
2018-10-11T10:44:43.319Z,996.64
2018-10-11T10:45:43.276Z,996.62
2018-10-11T10:46:43.268Z,996.62
2018-10-11T10:47:43.269Z,996.63
2018-10-11T10:48:43.286Z,996.63
2018-10-11T10:49:43.282Z,996.62
2018-10-11T10:50:43.224Z,996.50
2018-10-11T10:51:43.213Z,996.50
2018-10-11T10:52:43.218Z,996.58
2018-10-11T10:53:43.196Z,996.58
2018-10-11T10:54:43.299Z,996.57
2018-10-11T10:55:43.180Z,996.60
2018-10-11T10:56:43.178Z,996.55
2018-10-11T10:57:43.149Z,996.52
2018-10-11T10:58:43.147Z,996.51
2018-10-11T10:59:43.164Z,996.51
2018-10-11T11:00:43.125Z,996.53
2018-10-11T11:01:43.117Z,996.54
2018-10-11T11:02:43.094Z,996.49
2018-10-11T11:03:43.082Z,996.52
2018-10-11T11:04:43.122Z,996.56
2018-10-11T11:05:43.087Z,996.54
2018-10-11T11:06:43.068Z,996.50
2018-10-11T11:07:43.076Z,996.48
2018-10-11T11:08:43.028Z,996.44
2018-10-11T11:09:43.017Z,996.43
2018-10-11T11:10:43.006Z,996.45
2018-10-11T11:11:42.998Z,996.41
2018-10-11T11:12:43.002Z,996.40
2018-10-11T11:13:42.973Z,996.45
2018-10-11T11:14:42.978Z,996.37
2018-10-11T11:15:42.960Z,996.39
2018-10-11T11:16:42.941Z,996.39
2018-10-11T11:17:42.969Z,996.32
2018-10-11T11:18:42.936Z,996.35
2018-10-11T11:19:42.908Z,996.36
2018-10-11T11:20:42.901Z,996.37
2018-10-11T11:21:42.895Z,996.33
2018-10-11T11:22:42.897Z,996.26
2018-10-11T11:23:42.864Z,996.27
2018-10-11T11:24:42.862Z,996.22
2018-10-11T11:25:42.842Z,996.15
2018-10-11T11:26:42.833Z,996.16
2018-10-11T11:27:42.847Z,996.10
2018-10-11T11:28:42.809Z,996.05
2018-10-11T11:29:42.798Z,996.05
2018-10-11T11:30:42.796Z,996.00
2018-10-11T11:31:42.778Z,996.00
2018-10-11T11:32:42.787Z,995.98
2018-10-11T11:33:42.757Z,995.93
2018-10-11T11:34:42.767Z,995.92
2018-10-11T11:35:42.737Z,995.91
2018-10-11T11:36:42.731Z,995.92
2018-10-11T11:37:42.714Z,995.94
2018-10-11T11:38:42.722Z,995.88
2018-10-11T11:39:42.713Z,995.91
2018-10-11T11:40:42.706Z,995.88
2018-10-11T11:41:42.687Z,995.94
2018-10-11T11:42:42.664Z,995.94
2018-10-11T11:43:42.646Z,995.96
2018-10-11T11:44:42.635Z,996.03
2018-10-11T11:45:42.685Z,996.04
2018-10-11T11:46:42.644Z,996.03
2018-10-11T11:47:42.611Z,996.05
2018-10-11T11:48:42.592Z,995.99
2018-10-11T11:49:42.590Z,995.96
2018-10-11T11:50:42.572Z,995.98
2018-10-11T11:51:42.587Z,995.96
2018-10-11T11:52:42.547Z,995.96
2018-10-11T11:53:42.547Z,995.93
2018-10-11T11:54:42.626Z,995.94
2018-10-11T11:55:42.552Z,995.92
2018-10-11T11:56:42.570Z,995.90
2018-10-11T11:57:42.502Z,995.88
2018-10-11T11:58:42.488Z,995.90
2018-10-11T11:59:42.483Z,995.86
2018-10-11T12:00:42.492Z,995.92
2018-10-11T12:01:42.458Z,995.90
2018-10-11T12:02:42.535Z,995.94
2018-10-11T12:03:42.427Z,995.99
2018-10-11T12:04:42.418Z,995.91
2018-10-11T12:05:42.429Z,995.88
2018-10-11T12:06:42.394Z,995.88
2018-10-11T12:07:42.387Z,995.85
2018-10-11T12:08:42.424Z,995.87
2018-10-11T12:09:42.365Z,995.90
2018-10-11T12:10:42.406Z,995.89
2018-10-11T12:11:42.340Z,995.86
2018-10-11T12:12:42.333Z,995.86
2018-10-11T12:13:42.361Z,995.84
2018-10-11T12:14:42.308Z,995.81
2018-10-11T12:15:42.295Z,995.86
2018-10-11T12:16:42.397Z,995.87
2018-10-11T12:17:42.296Z,995.87
2018-10-11T12:18:42.287Z,995.81
2018-10-11T12:19:42.256Z,995.83
2018-10-11T12:20:42.264Z,995.88
2018-10-11T12:21:42.243Z,995.88
2018-10-11T12:22:42.226Z,995.87
2018-10-11T12:23:42.252Z,995.93
2018-10-11T12:24:42.225Z,995.87
2018-10-11T12:25:42.226Z,995.87
2018-10-11T12:26:42.176Z,995.84
2018-10-11T12:27:42.169Z,995.80
2018-10-11T12:28:42.400Z,995.82